sensor_id;sensor_type;location;lat;lon;timestamp;P1;durP1;ratioP1;P2;durP2;ratioP2
67564;SDS011;54393;53.556;49.216;2022-09-09T00:03:42;1.17;;;1.17;;
67564;SDS011;54393;53.556;49.216;2022-09-09T00:11:46;0.80;;;0.80;;
67564;SDS011;54393;53.556;49.216;2022-09-09T00:16:59;0.90;;;0.90;;
67564;SDS011;54393;53.556;49.216;2022-09-09T00:20:16;1.02;;;0.77;;
67564;SDS011;54393;53.556;49.216;2022-09-09T00:22:22;2.00;;;0.80;;
67564;SDS011;54393;53.556;49.216;2022-09-09T00:27:24;1.00;;;1.00;;
67564;SDS011;54393;53.556;49.216;2022-09-09T00:30:02;0.80;;;0.80;;
67564;SDS011;54393;53.556;49.216;2022-09-09T00:32:44;3.40;;;0.90;;
67564;SDS011;54393;53.556;49.216;2022-09-09T00:35:16;0.88;;;0.88;;
67564;SDS011;54393;53.556;49.216;2022-09-09T00:37:47;0.80;;;0.80;;
67564;SDS011;54393;53.556;49.216;2022-09-09T00:40:38;0.90;;;0.90;;
67564;SDS011;54393;53.556;49.216;2022-09-09T00:43:10;1.10;;;1.10;;
67564;SDS011;54393;53.556;49.216;2022-09-09T00:49:31;0.80;;;0.80;;
67564;SDS011;54393;53.556;49.216;2022-09-09T00:55:00;0.80;;;0.80;;
67564;SDS011;54393;53.556;49.216;2022-09-09T00:57:44;1.25;;;1.10;;
67564;SDS011;54393;53.556;49.216;2022-09-09T01:00:21;1.20;;;1.10;;
67564;SDS011;54393;53.556;49.216;2022-09-09T01:03:01;0.90;;;0.90;;
67564;SDS011;54393;53.556;49.216;2022-09-09T01:05:39;0.90;;;0.90;;
67564;SDS011;54393;53.556;49.216;2022-09-09T01:08:14;0.82;;;0.82;;
67564;SDS011;54393;53.556;49.216;2022-09-09T01:10:50;0.90;;;0.90;;
67564;SDS011;54393;53.556;49.216;2022-09-09T01:13:22;0.98;;;0.98;;
67564;SDS011;54393;53.556;49.216;2022-09-09T01:15:51;0.80;;;0.80;;
67564;SDS011;54393;53.556;49.216;2022-09-09T01:18:21;0.90;;;0.90;;
67564;SDS011;54393;53.556;49.216;2022-09-09T01:26:07;0.70;;;0.70;;
67564;SDS011;54393;53.556;49.216;2022-09-09T01:28:36;1.20;;;1.10;;
67564;SDS011;54393;53.556;49.216;2022-09-09T01:31:04;1.10;;;1.00;;
67564;SDS011;54393;53.556;49.216;2022-09-09T01:33:31;1.02;;;1.02;;
67564;SDS011;54393;53.556;49.216;2022-09-09T01:38:59;0.70;;;0.70;;
67564;SDS011;54393;53.556;49.216;2022-09-09T01:41:26;0.88;;;0.88;;
67564;SDS011;54393;53.556;49.216;2022-09-09T01:43:53;0.90;;;0.90;;
67564;SDS011;54393;53.556;49.216;2022-09-09T01:46:21;0.80;;;0.80;;
67564;SDS011;54393;53.556;49.216;2022-09-09T01:48:49;0.80;;;0.80;;
67564;SDS011;54393;53.556;49.216;2022-09-09T01:51:16;1.00;;;1.00;;
67564;SDS011;54393;53.556;49.216;2022-09-09T01:53:43;0.90;;;0.90;;
67564;SDS011;54393;53.556;49.216;2022-09-09T02:07:21;1.00;;;1.00;;
67564;SDS011;54393;53.556;49.216;2022-09-09T02:09:52;0.73;;;0.73;;
67564;SDS011;54393;53.556;49.216;2022-09-09T02:12:38;0.80;;;0.80;;
67564;SDS011;54393;53.556;49.216;2022-09-09T02:15:16;0.82;;;0.82;;
67564;SDS011;54393;53.556;49.216;2022-09-09T02:17:49;0.60;;;0.60;;
67564;SDS011;54393;53.556;49.216;2022-09-09T02:20:16;0.73;;;0.73;;
67564;SDS011;54393;53.556;49.216;2022-09-09T02:22:44;0.60;;;0.60;;
67564;SDS011;54393;53.556;49.216;2022-09-09T02:25:15;0.80;;;0.80;;
67564;SDS011;54393;53.556;49.216;2022-09-09T02:27:44;0.62;;;0.62;;
67564;SDS011;54393;53.556;49.216;2022-09-09T02:30:12;0.70;;;0.70;;
67564;SDS011;54393;53.556;49.216;2022-09-09T02:32:38;0.98;;;0.98;;
67564;SDS011;54393;53.556;49.216;2022-09-09T02:35:08;0.70;;;0.70;;
67564;SDS011;54393;53.556;49.216;2022-09-09T02:37:38;1.00;;;1.00;;
67564;SDS011;54393;53.556;49.216;2022-09-09T02:40:05;0.82;;;0.82;;
67564;SDS011;54393;53.556;49.216;2022-09-09T02:42:40;0.80;;;0.80;;
67564;SDS011;54393;53.556;49.216;2022-09-09T02:45:09;0.62;;;0.62;;
67564;SDS011;54393;53.556;49.216;2022-09-09T02:50:24;1.37;;;1.10;;
67564;SDS011;54393;53.556;49.216;2022-09-09T02:55:44;0.93;;;0.93;;
67564;SDS011;54393;53.556;49.216;2022-09-09T02:58:13;0.95;;;0.95;;
67564;SDS011;54393;53.556;49.216;2022-09-09T03:00:47;1.50;;;0.93;;
67564;SDS011;54393;53.556;49.216;2022-09-09T03:03:15;0.80;;;0.80;;
67564;SDS011;54393;53.556;49.216;2022-09-09T03:05:43;0.90;;;0.90;;
67564;SDS011;54393;53.556;49.216;2022-09-09T03:08:10;0.90;;;0.90;;
67564;SDS011;54393;53.556;49.216;2022-09-09T03:10:36;0.90;;;0.90;;
67564;SDS011;54393;53.556;49.216;2022-09-09T03:13:03;0.80;;;0.80;;
67564;SDS011;54393;53.556;49.216;2022-09-09T03:15:33;0.93;;;0.80;;
67564;SDS011;54393;53.556;49.216;2022-09-09T03:18:00;0.60;;;0.60;;
67564;SDS011;54393;53.556;49.216;2022-09-09T03:20:27;0.73;;;0.73;;
67564;SDS011;54393;53.556;49.216;2022-09-09T03:22:55;0.88;;;0.88;;
67564;SDS011;54393;53.556;49.216;2022-09-09T03:25:22;0.80;;;0.80;;
67564;SDS011;54393;53.556;49.216;2022-09-09T03:27:49;0.80;;;0.80;;
67564;SDS011;54393;53.556;49.216;2022-09-09T03:30:20;0.73;;;0.73;;
67564;SDS011;54393;53.556;49.216;2022-09-09T03:32:47;0.88;;;0.88;;
67564;SDS011;54393;53.556;49.216;2022-09-09T03:35:14;0.60;;;0.60;;
67564;SDS011;54393;53.556;49.216;2022-09-09T03:37:41;1.90;;;0.90;;
67564;SDS011;54393;53.556;49.216;2022-09-09T03:40:07;0.70;;;0.70;;
67564;SDS011;54393;53.556;49.216;2022-09-09T03:42:37;0.50;;;0.50;;
67564;SDS011;54393;53.556;49.216;2022-09-09T03:45:08;0.93;;;0.93;;
67564;SDS011;54393;53.556;49.216;2022-09-09T03:47:35;0.70;;;0.70;;
67564;SDS011;54393;53.556;49.216;2022-09-09T03:50:02;0.90;;;0.90;;
67564;SDS011;54393;53.556;49.216;2022-09-09T03:52:37;0.90;;;0.80;;
67564;SDS011;54393;53.556;49.216;2022-09-09T03:55:05;0.90;;;0.88;;
67564;SDS011;54393;53.556;49.216;2022-09-09T03:57:32;1.17;;;0.88;;
67564;SDS011;54393;53.556;49.216;2022-09-09T04:00:01;0.80;;;0.80;;
67564;SDS011;54393;53.556;49.216;2022-09-09T04:02:31;0.80;;;0.80;;
67564;SDS011;54393;53.556;49.216;2022-09-09T04:04:58;1.20;;;1.10;;
67564;SDS011;54393;53.556;49.216;2022-09-09T04:07:24;0.70;;;0.70;;
67564;SDS011;54393;53.556;49.216;2022-09-09T04:09:52;0.82;;;0.82;;
67564;SDS011;54393;53.556;49.216;2022-09-09T04:12:19;0.95;;;0.95;;
67564;SDS011;54393;53.556;49.216;2022-09-09T04:14:47;1.85;;;0.80;;
67564;SDS011;54393;53.556;49.216;2022-09-09T04:17:14;0.80;;;0.80;;
67564;SDS011;54393;53.556;49.216;2022-09-09T04:19:40;0.70;;;0.70;;
67564;SDS011;54393;53.556;49.216;2022-09-09T04:22:07;1.55;;;1.00;;
67564;SDS011;54393;53.556;49.216;2022-09-09T04:24:34;1.12;;;1.12;;
67564;SDS011;54393;53.556;49.216;2022-09-09T04:27:01;1.20;;;1.10;;
67564;SDS011;54393;53.556;49.216;2022-09-09T04:29:27;0.90;;;0.90;;
67564;SDS011;54393;53.556;49.216;2022-09-09T04:31:53;0.93;;;0.93;;
67564;SDS011;54393;53.556;49.216;2022-09-09T04:34:20;1.90;;;0.88;;
67564;SDS011;54393;53.556;49.216;2022-09-09T04:36:46;0.98;;;0.98;;
67564;SDS011;54393;53.556;49.216;2022-09-09T04:39:13;1.02;;;0.98;;
67564;SDS011;54393;53.556;49.216;2022-09-09T04:41:39;1.92;;;1.02;;
67564;SDS011;54393;53.556;49.216;2022-09-09T04:44:06;0.90;;;0.90;;
67564;SDS011;54393;53.556;49.216;2022-09-09T04:46:32;1.05;;;0.73;;
67564;SDS011;54393;53.556;49.216;2022-09-09T04:49:01;0.98;;;0.90;;
67564;SDS011;54393;53.556;49.216;2022-09-09T04:51:28;1.85;;;0.90;;
67564;SDS011;54393;53.556;49.216;2022-09-09T04:53:56;1.02;;;0.90;;
67564;SDS011;54393;53.556;49.216;2022-09-09T04:56:22;1.08;;;0.98;;
67564;SDS011;54393;53.556;49.216;2022-09-09T04:58:52;1.00;;;0.90;;
67564;SDS011;54393;53.556;49.216;2022-09-09T05:01:19;1.00;;;0.90;;
67564;SDS011;54393;53.556;49.216;2022-09-09T05:03:47;0.90;;;0.90;;
67564;SDS011;54393;53.556;49.216;2022-09-09T05:06:15;2.78;;;1.20;;
67564;SDS011;54393;53.556;49.216;2022-09-09T05:08:43;1.65;;;0.90;;
67564;SDS011;54393;53.556;49.216;2022-09-09T05:11:20;0.70;;;0.70;;
67564;SDS011;54393;53.556;49.216;2022-09-09T05:13:49;0.80;;;0.68;;
67564;SDS011;54393;53.556;49.216;2022-09-09T05:16:17;2.58;;;1.10;;
67564;SDS011;54393;53.556;49.216;2022-09-09T05:18:43;1.85;;;1.25;;
67564;SDS011;54393;53.556;49.216;2022-09-09T05:21:11;1.30;;;1.20;;
67564;SDS011;54393;53.556;49.216;2022-09-09T05:23:39;1.48;;;1.17;;
67564;SDS011;54393;53.556;49.216;2022-09-09T05:26:06;1.65;;;0.95;;
67564;SDS011;54393;53.556;49.216;2022-09-09T05:28:34;3.97;;;1.08;;
67564;SDS011;54393;53.556;49.216;2022-09-09T05:31:02;2.30;;;1.00;;
67564;SDS011;54393;53.556;49.216;2022-09-09T05:33:30;2.22;;;1.20;;
67564;SDS011;54393;53.556;49.216;2022-09-09T05:38:28;2.90;;;1.10;;
67564;SDS011;54393;53.556;49.216;2022-09-09T05:40:55;2.45;;;0.90;;
67564;SDS011;54393;53.556;49.216;2022-09-09T05:43:22;1.70;;;1.10;;
67564;SDS011;54393;53.556;49.216;2022-09-09T05:45:58;5.00;;;1.08;;
67564;SDS011;54393;53.556;49.216;2022-09-09T05:48:37;3.33;;;1.48;;
67564;SDS011;54393;53.556;49.216;2022-09-09T05:51:11;4.45;;;1.12;;
67564;SDS011;54393;53.556;49.216;2022-09-09T05:53:40;3.22;;;1.37;;
67564;SDS011;54393;53.556;49.216;2022-09-09T05:56:09;2.97;;;1.20;;
67564;SDS011;54393;53.556;49.216;2022-09-09T05:58:37;2.33;;;1.10;;
67564;SDS011;54393;53.556;49.216;2022-09-09T06:01:05;3.35;;;1.10;;
67564;SDS011;54393;53.556;49.216;2022-09-09T06:03:36;5.95;;;1.30;;
67564;SDS011;54393;53.556;49.216;2022-09-09T06:06:04;1.55;;;1.10;;
67564;SDS011;54393;53.556;49.216;2022-09-09T06:08:36;2.28;;;1.02;;
67564;SDS011;54393;53.556;49.216;2022-09-09T06:11:04;4.70;;;1.10;;
67564;SDS011;54393;53.556;49.216;2022-09-09T06:13:32;2.70;;;1.30;;
67564;SDS011;54393;53.556;49.216;2022-09-09T06:15:59;2.92;;;1.08;;
67564;SDS011;54393;53.556;49.216;2022-09-09T06:18:26;6.12;;;1.40;;
67564;SDS011;54393;53.556;49.216;2022-09-09T06:20:53;2.17;;;1.40;;
67564;SDS011;54393;53.556;49.216;2022-09-09T06:23:24;7.28;;;1.62;;
67564;SDS011;54393;53.556;49.216;2022-09-09T06:25:52;2.78;;;1.10;;
67564;SDS011;54393;53.556;49.216;2022-09-09T06:28:27;1.08;;;0.90;;
67564;SDS011;54393;53.556;49.216;2022-09-09T06:30:57;2.20;;;0.90;;
67564;SDS011;54393;53.556;49.216;2022-09-09T06:33:33;3.50;;;0.85;;
67564;SDS011;54393;53.556;49.216;2022-09-09T06:36:01;1.85;;;0.82;;
67564;SDS011;54393;53.556;49.216;2022-09-09T06:38:29;1.95;;;1.00;;
67564;SDS011;54393;53.556;49.216;2022-09-09T06:40:56;2.08;;;0.90;;
67564;SDS011;54393;53.556;49.216;2022-09-09T06:43:24;4.45;;;1.12;;
67564;SDS011;54393;53.556;49.216;2022-09-09T06:45:55;1.27;;;1.05;;
67564;SDS011;54393;53.556;49.216;2022-09-09T06:48:25;1.75;;;1.10;;
67564;SDS011;54393;53.556;49.216;2022-09-09T06:53:33;1.80;;;0.90;;
67564;SDS011;54393;53.556;49.216;2022-09-09T06:56:01;1.08;;;0.95;;
67564;SDS011;54393;53.556;49.216;2022-09-09T06:58:43;2.60;;;0.90;;
67564;SDS011;54393;53.556;49.216;2022-09-09T07:01:14;1.73;;;0.85;;
67564;SDS011;54393;53.556;49.216;2022-09-09T07:03:44;2.95;;;0.98;;
67564;SDS011;54393;53.556;49.216;2022-09-09T07:06:22;3.65;;;0.70;;
67564;SDS011;54393;53.556;49.216;2022-09-09T07:08:57;1.80;;;0.90;;
67564;SDS011;54393;53.556;49.216;2022-09-09T07:13:52;1.05;;;0.98;;
67564;SDS011;54393;53.556;49.216;2022-09-09T07:16:19;1.77;;;0.73;;
67564;SDS011;54393;53.556;49.216;2022-09-09T07:18:48;1.17;;;0.80;;
67564;SDS011;54393;53.556;49.216;2022-09-09T07:21:15;3.35;;;0.98;;
67564;SDS011;54393;53.556;49.216;2022-09-09T07:23:42;2.65;;;0.80;;
67564;SDS011;54393;53.556;49.216;2022-09-09T07:26:13;0.60;;;0.60;;
67564;SDS011;54393;53.556;49.216;2022-09-09T07:28:41;0.95;;;0.80;;
67564;SDS011;54393;53.556;49.216;2022-09-09T07:31:17;2.05;;;0.90;;
67564;SDS011;54393;53.556;49.216;2022-09-09T07:33:51;1.85;;;0.77;;
67564;SDS011;54393;53.556;49.216;2022-09-09T07:38:49;2.17;;;1.00;;
67564;SDS011;54393;53.556;49.216;2022-09-09T07:41:27;2.15;;;0.80;;
67564;SDS011;54393;53.556;49.216;2022-09-09T07:43:59;0.77;;;0.77;;
67564;SDS011;54393;53.556;49.216;2022-09-09T07:46:29;3.40;;;0.80;;
67564;SDS011;54393;53.556;49.216;2022-09-09T07:48:56;3.15;;;0.98;;
67564;SDS011;54393;53.556;49.216;2022-09-09T07:51:24;1.65;;;0.82;;
67564;SDS011;54393;53.556;49.216;2022-09-09T07:53:54;1.20;;;0.90;;
67564;SDS011;54393;53.556;49.216;2022-09-09T07:56:23;1.80;;;0.77;;
67564;SDS011;54393;53.556;49.216;2022-09-09T07:58:51;1.92;;;0.93;;
67564;SDS011;54393;53.556;49.216;2022-09-09T08:01:19;2.15;;;0.80;;
67564;SDS011;54393;53.556;49.216;2022-09-09T08:03:52;1.30;;;0.77;;
67564;SDS011;54393;53.556;49.216;2022-09-09T08:06:29;1.60;;;1.10;;
67564;SDS011;54393;53.556;49.216;2022-09-09T08:08:58;1.02;;;0.80;;
67564;SDS011;54393;53.556;49.216;2022-09-09T08:11:25;0.68;;;0.60;;
67564;SDS011;54393;53.556;49.216;2022-09-09T08:13:52;1.65;;;0.50;;
67564;SDS011;54393;53.556;49.216;2022-09-09T08:16:20;2.30;;;0.68;;
67564;SDS011;54393;53.556;49.216;2022-09-09T08:19:06;1.58;;;0.80;;
67564;SDS011;54393;53.556;49.216;2022-09-09T08:21:33;3.17;;;0.62;;
67564;SDS011;54393;53.556;49.216;2022-09-09T08:24:01;1.75;;;1.08;;
67564;SDS011;54393;53.556;49.216;2022-09-09T08:26:34;0.70;;;0.70;;
67564;SDS011;54393;53.556;49.216;2022-09-09T08:29:03;1.17;;;0.82;;
67564;SDS011;54393;53.556;49.216;2022-09-09T08:31:35;1.15;;;0.77;;
67564;SDS011;54393;53.556;49.216;2022-09-09T08:34:03;2.53;;;0.90;;
67564;SDS011;54393;53.556;49.216;2022-09-09T08:36:32;1.33;;;0.90;;
67564;SDS011;54393;53.556;49.216;2022-09-09T08:38:59;1.58;;;0.65;;
67564;SDS011;54393;53.556;49.216;2022-09-09T08:52:21;5.07;;;0.90;;
67564;SDS011;54393;53.556;49.216;2022-09-09T08:55:20;1.02;;;0.80;;
67564;SDS011;54393;53.556;49.216;2022-09-09T08:58:12;0.70;;;0.70;;
67564;SDS011;54393;53.556;49.216;2022-09-09T09:08:54;0.90;;;0.60;;
67564;SDS011;54393;53.556;49.216;2022-09-09T09:11:34;2.20;;;0.60;;
67564;SDS011;54393;53.556;49.216;2022-09-09T09:14:23;1.67;;;0.70;;
67564;SDS011;54393;53.556;49.216;2022-09-09T09:16:54;3.05;;;0.90;;
67564;SDS011;54393;53.556;49.216;2022-09-09T09:19:22;0.60;;;0.55;;
67564;SDS011;54393;53.556;49.216;2022-09-09T09:21:59;1.02;;;0.70;;
67564;SDS011;54393;53.556;49.216;2022-09-09T09:24:54;1.95;;;0.85;;
67564;SDS011;54393;53.556;49.216;2022-09-09T09:27:46;5.50;;;0.70;;
67564;SDS011;54393;53.556;49.216;2022-09-09T09:30:17;0.50;;;0.50;;
67564;SDS011;54393;53.556;49.216;2022-09-09T09:33:28;0.50;;;0.50;;
67564;SDS011;54393;53.556;49.216;2022-09-09T09:35:43;0.60;;;0.60;;
67564;SDS011;54393;53.556;49.216;2022-09-09T09:40:50;0.70;;;0.68;;
67564;SDS011;54393;53.556;49.216;2022-09-09T09:43:21;0.80;;;0.50;;
67564;SDS011;54393;53.556;49.216;2022-09-09T09:45:53;0.50;;;0.47;;
67564;SDS011;54393;53.556;49.216;2022-09-09T09:48:20;1.33;;;0.70;;
67564;SDS011;54393;53.556;49.216;2022-09-09T09:53:25;1.77;;;0.50;;
67564;SDS011;54393;53.556;49.216;2022-09-09T09:55:57;0.62;;;0.60;;
67564;SDS011;54393;53.556;49.216;2022-09-09T09:58:32;0.55;;;0.55;;
67564;SDS011;54393;53.556;49.216;2022-09-09T10:01:22;1.25;;;0.70;;
67564;SDS011;54393;53.556;49.216;2022-09-09T10:03:59;0.65;;;0.60;;
67564;SDS011;54393;53.556;49.216;2022-09-09T10:06:31;1.12;;;1.12;;
67564;SDS011;54393;53.556;49.216;2022-09-09T10:09:02;1.37;;;0.90;;
67564;SDS011;54393;53.556;49.216;2022-09-09T10:17:43;1.20;;;0.80;;
67564;SDS011;54393;53.556;49.216;2022-09-09T10:28:34;0.65;;;0.52;;
67564;SDS011;54393;53.556;49.216;2022-09-09T10:34:17;1.42;;;0.70;;
67564;SDS011;54393;53.556;49.216;2022-09-09T10:37:00;0.60;;;0.60;;
67564;SDS011;54393;53.556;49.216;2022-09-09T10:39:37;1.17;;;0.50;;
67564;SDS011;54393;53.556;49.216;2022-09-09T10:42:08;3.60;;;0.80;;
67564;SDS011;54393;53.556;49.216;2022-09-09T10:50:06;0.75;;;0.65;;
67564;SDS011;54393;53.556;49.216;2022-09-09T10:55:40;2.53;;;0.70;;
67564;SDS011;54393;53.556;49.216;2022-09-09T10:58:15;0.73;;;0.52;;
67564;SDS011;54393;53.556;49.216;2022-09-09T11:00:52;0.60;;;0.50;;
67564;SDS011;54393;53.556;49.216;2022-09-09T11:03:30;0.50;;;0.50;;
67564;SDS011;54393;53.556;49.216;2022-09-09T11:06:05;0.70;;;0.70;;
67564;SDS011;54393;53.556;49.216;2022-09-09T11:08:38;0.40;;;0.40;;
67564;SDS011;54393;53.556;49.216;2022-09-09T11:13:53;0.85;;;0.85;;
67564;SDS011;54393;53.556;49.216;2022-09-09T11:16:49;1.17;;;0.55;;
67564;SDS011;54393;53.556;49.216;2022-09-09T11:19:26;0.60;;;0.60;;
67564;SDS011;54393;53.556;49.216;2022-09-09T11:22:44;0.68;;;0.47;;
67564;SDS011;54393;53.556;49.216;2022-09-09T11:30:55;2.37;;;0.60;;
67564;SDS011;54393;53.556;49.216;2022-09-09T11:36:45;1.00;;;0.60;;
67564;SDS011;54393;53.556;49.216;2022-09-09T11:44:48;1.73;;;0.80;;
67564;SDS011;54393;53.556;49.216;2022-09-09T11:47:25;1.60;;;0.50;;
67564;SDS011;54393;53.556;49.216;2022-09-09T11:50:07;1.27;;;0.57;;
67564;SDS011;54393;53.556;49.216;2022-09-09T11:55:27;0.70;;;0.40;;
67564;SDS011;54393;53.556;49.216;2022-09-09T12:00:32;0.35;;;0.35;;
67564;SDS011;54393;53.556;49.216;2022-09-09T12:03:00;1.55;;;0.50;;
67564;SDS011;54393;53.556;49.216;2022-09-09T12:05:40;2.10;;;0.60;;
67564;SDS011;54393;53.556;49.216;2022-09-09T12:08:11;0.57;;;0.37;;
67564;SDS011;54393;53.556;49.216;2022-09-09T12:10:55;0.40;;;0.40;;
67564;SDS011;54393;53.556;49.216;2022-09-09T12:13:23;0.68;;;0.40;;
67564;SDS011;54393;53.556;49.216;2022-09-09T12:15:53;1.98;;;0.52;;
67564;SDS011;54393;53.556;49.216;2022-09-09T12:21:01;1.65;;;0.85;;
67564;SDS011;54393;53.556;49.216;2022-09-09T12:23:52;0.50;;;0.50;;
67564;SDS011;54393;53.556;49.216;2022-09-09T12:26:34;0.80;;;0.40;;
67564;SDS011;54393;53.556;49.216;2022-09-09T12:29:14;0.85;;;0.40;;
67564;SDS011;54393;53.556;49.216;2022-09-09T12:34:47;0.45;;;0.40;;
67564;SDS011;54393;53.556;49.216;2022-09-09T12:39:58;0.43;;;0.43;;
67564;SDS011;54393;53.556;49.216;2022-09-09T12:42:27;0.52;;;0.50;;
67564;SDS011;54393;53.556;49.216;2022-09-09T12:47:35;0.67;;;0.60;;
67564;SDS011;54393;53.556;49.216;2022-09-09T12:50:27;1.52;;;0.50;;
67564;SDS011;54393;53.556;49.216;2022-09-09T12:52:55;1.52;;;0.75;;
67564;SDS011;54393;53.556;49.216;2022-09-09T12:55:24;1.15;;;0.65;;
67564;SDS011;54393;53.556;49.216;2022-09-09T12:57:55;2.37;;;0.65;;
67564;SDS011;54393;53.556;49.216;2022-09-09T13:00:24;2.05;;;0.50;;
67564;SDS011;54393;53.556;49.216;2022-09-09T13:02:53;0.70;;;0.55;;
67564;SDS011;54393;53.556;49.216;2022-09-09T13:05:22;0.40;;;0.40;;
67564;SDS011;54393;53.556;49.216;2022-09-09T13:08:00;0.40;;;0.40;;
67564;SDS011;54393;53.556;49.216;2022-09-09T13:10:28;0.40;;;0.40;;
67564;SDS011;54393;53.556;49.216;2022-09-09T13:12:58;0.68;;;0.68;;
67564;SDS011;54393;53.556;49.216;2022-09-09T13:15:26;0.47;;;0.47;;
67564;SDS011;54393;53.556;49.216;2022-09-09T13:17:58;2.10;;;0.70;;
67564;SDS011;54393;53.556;49.216;2022-09-09T13:20:27;0.37;;;0.37;;
67564;SDS011;54393;53.556;49.216;2022-09-09T13:22:54;0.55;;;0.52;;
67564;SDS011;54393;53.556;49.216;2022-09-09T13:30:21;0.50;;;0.50;;
67564;SDS011;54393;53.556;49.216;2022-09-09T13:38:53;2.37;;;0.60;;
67564;SDS011;54393;53.556;49.216;2022-09-09T13:41:22;0.52;;;0.43;;
67564;SDS011;54393;53.556;49.216;2022-09-09T13:43:49;0.40;;;0.40;;
67564;SDS011;54393;53.556;49.216;2022-09-09T13:46:59;0.40;;;0.40;;
67564;SDS011;54393;53.556;49.216;2022-09-09T13:54:04;0.50;;;0.40;;
67564;SDS011;54393;53.556;49.216;2022-09-09T13:56:32;0.98;;;0.43;;
67564;SDS011;54393;53.556;49.216;2022-09-09T13:59:00;0.70;;;0.25;;
67564;SDS011;54393;53.556;49.216;2022-09-09T14:01:27;0.40;;;0.40;;
67564;SDS011;54393;53.556;49.216;2022-09-09T14:03:54;0.30;;;0.30;;
67564;SDS011;54393;53.556;49.216;2022-09-09T14:06:20;0.50;;;0.40;;
67564;SDS011;54393;53.556;49.216;2022-09-09T14:08:51;0.37;;;0.32;;
67564;SDS011;54393;53.556;49.216;2022-09-09T14:11:19;0.50;;;0.47;;
67564;SDS011;54393;53.556;49.216;2022-09-09T14:13:48;0.62;;;0.50;;
67564;SDS011;54393;53.556;49.216;2022-09-09T14:16:17;1.02;;;0.68;;
67564;SDS011;54393;53.556;49.216;2022-09-09T14:18:45;0.60;;;0.60;;
67564;SDS011;54393;53.556;49.216;2022-09-09T14:21:12;0.47;;;0.47;;
67564;SDS011;54393;53.556;49.216;2022-09-09T14:23:39;0.45;;;0.45;;
67564;SDS011;54393;53.556;49.216;2022-09-09T14:26:05;0.43;;;0.43;;
67564;SDS011;54393;53.556;49.216;2022-09-09T14:28:32;0.40;;;0.40;;
67564;SDS011;54393;53.556;49.216;2022-09-09T14:31:00;0.65;;;0.50;;
67564;SDS011;54393;53.556;49.216;2022-09-09T14:33:27;1.10;;;0.40;;
67564;SDS011;54393;53.556;49.216;2022-09-09T14:35:58;0.43;;;0.40;;
67564;SDS011;54393;53.556;49.216;2022-09-09T14:38:28;0.50;;;0.50;;
67564;SDS011;54393;53.556;49.216;2022-09-09T14:40:56;0.32;;;0.32;;
67564;SDS011;54393;53.556;49.216;2022-09-09T14:43:23;0.60;;;0.40;;
67564;SDS011;54393;53.556;49.216;2022-09-09T14:45:51;0.40;;;0.40;;
67564;SDS011;54393;53.556;49.216;2022-09-09T14:48:17;0.43;;;0.43;;
67564;SDS011;54393;53.556;49.216;2022-09-09T14:50:44;0.30;;;0.30;;
67564;SDS011;54393;53.556;49.216;2022-09-09T14:53:10;0.40;;;0.40;;
67564;SDS011;54393;53.556;49.216;2022-09-09T14:55:38;0.40;;;0.40;;
67564;SDS011;54393;53.556;49.216;2022-09-09T14:58:05;0.43;;;0.43;;
67564;SDS011;54393;53.556;49.216;2022-09-09T15:00:31;0.40;;;0.40;;
67564;SDS011;54393;53.556;49.216;2022-09-09T15:02:58;0.40;;;0.40;;
67564;SDS011;54393;53.556;49.216;2022-09-09T15:05:24;0.30;;;0.30;;
67564;SDS011;54393;53.556;49.216;2022-09-09T15:07:51;0.30;;;0.30;;
67564;SDS011;54393;53.556;49.216;2022-09-09T15:10:17;0.85;;;0.50;;
67564;SDS011;54393;53.556;49.216;2022-09-09T15:12:44;1.42;;;0.52;;
67564;SDS011;54393;53.556;49.216;2022-09-09T15:15:10;0.37;;;0.32;;
67564;SDS011;54393;53.556;49.216;2022-09-09T15:17:37;0.50;;;0.50;;
67564;SDS011;54393;53.556;49.216;2022-09-09T15:20:04;0.30;;;0.30;;
67564;SDS011;54393;53.556;49.216;2022-09-09T15:22:31;0.30;;;0.30;;
67564;SDS011;54393;53.556;49.216;2022-09-09T15:24:59;0.43;;;0.43;;
67564;SDS011;54393;53.556;49.216;2022-09-09T15:27:25;0.45;;;0.37;;
67564;SDS011;54393;53.556;49.216;2022-09-09T15:29:51;0.47;;;0.40;;
67564;SDS011;54393;53.556;49.216;2022-09-09T15:32:18;0.45;;;0.45;;
67564;SDS011;54393;53.556;49.216;2022-09-09T15:34:44;0.47;;;0.45;;
67564;SDS011;54393;53.556;49.216;2022-09-09T15:37:11;0.37;;;0.37;;
67564;SDS011;54393;53.556;49.216;2022-09-09T15:39:40;0.37;;;0.37;;
67564;SDS011;54393;53.556;49.216;2022-09-09T15:42:07;0.77;;;0.40;;
67564;SDS011;54393;53.556;49.216;2022-09-09T15:44:42;0.30;;;0.30;;
67564;SDS011;54393;53.556;49.216;2022-09-09T15:47:12;0.40;;;0.40;;
67564;SDS011;54393;53.556;49.216;2022-09-09T15:49:39;0.50;;;0.40;;
67564;SDS011;54393;53.556;49.216;2022-09-09T15:52:05;0.40;;;0.40;;
67564;SDS011;54393;53.556;49.216;2022-09-09T15:54:33;0.40;;;0.40;;
67564;SDS011;54393;53.556;49.216;2022-09-09T15:57:01;1.05;;;0.35;;
67564;SDS011;54393;53.556;49.216;2022-09-09T15:59:30;0.40;;;0.40;;
67564;SDS011;54393;53.556;49.216;2022-09-09T16:01:57;0.52;;;0.40;;
67564;SDS011;54393;53.556;49.216;2022-09-09T16:04:25;0.50;;;0.50;;
67564;SDS011;54393;53.556;49.216;2022-09-09T16:06:52;0.30;;;0.30;;
67564;SDS011;54393;53.556;49.216;2022-09-09T16:09:25;0.37;;;0.37;;
67564;SDS011;54393;53.556;49.216;2022-09-09T16:11:52;0.40;;;0.40;;
67564;SDS011;54393;53.556;49.216;2022-09-09T16:14:26;0.50;;;0.50;;
67564;SDS011;54393;53.556;49.216;2022-09-09T16:16:52;0.40;;;0.40;;
67564;SDS011;54393;53.556;49.216;2022-09-09T16:19:19;0.65;;;0.55;;
67564;SDS011;54393;53.556;49.216;2022-09-09T16:21:47;0.40;;;0.40;;
67564;SDS011;54393;53.556;49.216;2022-09-09T16:24:15;1.08;;;0.40;;
67564;SDS011;54393;53.556;49.216;2022-09-09T16:26:44;0.47;;;0.47;;
67564;SDS011;54393;53.556;49.216;2022-09-09T16:29:13;0.40;;;0.40;;
67564;SDS011;54393;53.556;49.216;2022-09-09T16:31:40;0.40;;;0.40;;
67564;SDS011;54393;53.556;49.216;2022-09-09T16:34:07;0.35;;;0.35;;
67564;SDS011;54393;53.556;49.216;2022-09-09T16:36:35;0.50;;;0.50;;
67564;SDS011;54393;53.556;49.216;2022-09-09T16:39:05;0.40;;;0.40;;
67564;SDS011;54393;53.556;49.216;2022-09-09T16:41:34;0.40;;;0.40;;
67564;SDS011;54393;53.556;49.216;2022-09-09T16:44:02;0.50;;;0.50;;
67564;SDS011;54393;53.556;49.216;2022-09-09T16:46:31;0.40;;;0.40;;
67564;SDS011;54393;53.556;49.216;2022-09-09T16:49:02;0.40;;;0.40;;
67564;SDS011;54393;53.556;49.216;2022-09-09T16:51:31;0.40;;;0.40;;
67564;SDS011;54393;53.556;49.216;2022-09-09T16:54:03;0.40;;;0.40;;
67564;SDS011;54393;53.556;49.216;2022-09-09T16:56:34;0.57;;;0.40;;
67564;SDS011;54393;53.556;49.216;2022-09-09T16:59:03;0.40;;;0.40;;
67564;SDS011;54393;53.556;49.216;2022-09-09T17:01:32;0.35;;;0.35;;
67564;SDS011;54393;53.556;49.216;2022-09-09T17:04:03;0.50;;;0.50;;
67564;SDS011;54393;53.556;49.216;2022-09-09T17:06:32;0.30;;;0.30;;
67564;SDS011;54393;53.556;49.216;2022-09-09T17:09:04;0.50;;;0.50;;
67564;SDS011;54393;53.556;49.216;2022-09-09T17:11:32;0.40;;;0.40;;
67564;SDS011;54393;53.556;49.216;2022-09-09T17:13:59;0.40;;;0.40;;
67564;SDS011;54393;53.556;49.216;2022-09-09T17:16:26;0.82;;;0.50;;
67564;SDS011;54393;53.556;49.216;2022-09-09T17:18:54;0.30;;;0.30;;
67564;SDS011;54393;53.556;49.216;2022-09-09T17:21:22;0.65;;;0.57;;
67564;SDS011;54393;53.556;49.216;2022-09-09T17:23:50;0.40;;;0.40;;
67564;SDS011;54393;53.556;49.216;2022-09-09T17:26:18;0.47;;;0.40;;
67564;SDS011;54393;53.556;49.216;2022-09-09T17:28:46;0.52;;;0.47;;